createdAt,value
2023-04-05T00:01:15.993Z,-2.41
2023-04-05T00:03:44.314Z,-2.45
2023-04-05T00:06:13.523Z,-2.44
2023-04-05T00:08:41.936Z,-2.46
2023-04-05T00:11:10.442Z,-2.54
2023-04-05T00:13:38.784Z,-2.56
2023-04-05T00:16:07.696Z,-2.57
2023-04-05T00:18:38.613Z,-2.55
2023-04-05T00:21:07.125Z,-2.60
2023-04-05T00:23:39.941Z,-2.55
2023-04-05T00:26:09.011Z,-2.60
2023-04-05T00:28:38.126Z,-2.63
2023-04-05T00:31:07.149Z,-2.65
2023-04-05T00:33:35.554Z,-2.64
2023-04-05T00:36:17.557Z,-2.63
2023-04-05T00:38:48.418Z,-2.73
2023-04-05T00:41:16.994Z,-2.80
2023-04-05T00:43:45.254Z,-2.88
2023-04-05T00:46:13.847Z,-2.85
2023-04-05T00:48:42.197Z,-2.91
2023-04-05T00:51:11.965Z,-2.95
2023-04-05T00:53:43.201Z,-2.97
2023-04-05T00:56:13.890Z,-3.00
2023-04-05T00:58:42.908Z,-3.07
2023-04-05T01:01:18.832Z,-3.03
2023-04-05T01:04:03.126Z,-3.09
2023-04-05T01:07:24.050Z,-3.08
2023-04-05T01:10:00.811Z,-3.08
2023-04-05T01:12:33.655Z,-3.09
2023-04-05T01:15:05.095Z,-3.07
2023-04-05T01:17:37.122Z,-3.07
2023-04-05T01:20:11.873Z,-3.24
2023-04-05T01:23:31.259Z,-3.24
2023-04-05T01:26:46.531Z,-3.19
2023-04-05T01:29:45.018Z,-3.20
2023-04-05T01:32:49.524Z,-3.23
2023-04-05T01:35:39.637Z,-3.24
2023-04-05T01:38:12.512Z,-3.20
2023-04-05T01:40:42.337Z,-3.21
2023-04-05T01:43:17.926Z,-3.20
2023-04-05T01:45:47.238Z,-3.23
2023-04-05T01:48:16.416Z,-3.25
2023-04-05T01:50:44.504Z,-3.20
2023-04-05T01:53:12.976Z,-3.11
2023-04-05T01:55:41.472Z,-3.01
2023-04-05T01:58:10.268Z,-2.90
2023-04-05T02:00:39.403Z,-2.84
2023-04-05T02:03:07.736Z,-2.71
2023-04-05T02:05:35.813Z,-2.71
2023-04-05T02:08:04.266Z,-2.59
2023-04-05T02:10:32.442Z,-2.60
2023-04-05T02:13:00.514Z,-2.46
2023-04-05T02:15:28.648Z,-2.33
2023-04-05T02:18:02.369Z,-2.25
2023-04-05T02:20:31.087Z,-2.20
2023-04-05T02:23:00.735Z,-2.21
2023-04-05T02:25:30.109Z,-2.15
2023-04-05T02:27:58.943Z,-2.02
2023-04-05T02:30:29.242Z,-1.93
2023-04-05T02:32:57.608Z,-1.94
2023-04-05T02:35:26.048Z,-1.98
2023-04-05T02:37:54.238Z,-2.11
2023-04-05T02:40:23.564Z,-2.19
2023-04-05T02:42:51.769Z,-2.20
2023-04-05T02:45:19.827Z,-2.24
2023-04-05T02:47:49.338Z,-2.31
2023-04-05T02:50:21.014Z,-2.32
2023-04-05T02:52:50.076Z,-2.37
2023-04-05T02:55:19.533Z,-2.42
2023-04-05T02:57:47.914Z,-2.47
2023-04-05T03:00:41.129Z,-2.51
2023-04-05T03:03:11.530Z,-2.56
2023-04-05T03:05:43.442Z,-2.55
2023-04-05T03:08:19.898Z,-2.60
2023-04-05T03:10:59.372Z,-2.64
2023-04-05T03:13:27.655Z,-2.58
2023-04-05T03:15:56.725Z,-2.56
2023-04-05T03:18:30.503Z,-2.55
2023-04-05T03:21:06.163Z,-2.50
2023-04-05T03:23:39.868Z,-2.47
2023-04-05T03:26:07.957Z,-2.53
2023-04-05T03:28:45.399Z,-2.54
2023-04-05T03:41:05.322Z,-2.58
2023-04-05T03:43:33.953Z,-2.61
2023-04-05T03:46:03.417Z,-2.60
2023-04-05T03:48:32.102Z,-2.61
2023-04-05T03:51:00.103Z,-2.57
2023-04-05T03:53:29.664Z,-2.62
2023-04-05T03:56:00.848Z,-2.74
2023-04-05T03:58:46.240Z,-2.80
2023-04-05T04:01:16.943Z,-2.87
2023-04-05T04:03:45.232Z,-2.88
2023-04-05T04:06:15.430Z,-2.86
2023-04-05T04:08:45.791Z,-2.86
2023-04-05T04:11:14.130Z,-2.84
2023-04-05T04:13:43.502Z,-2.79
2023-04-05T04:16:28.241Z,-2.67
2023-04-05T04:19:00.565Z,-2.67
2023-04-05T04:21:32.995Z,-2.69
2023-04-05T04:24:21.892Z,-2.64
2023-04-05T04:26:55.922Z,-2.64
2023-04-05T04:29:47.092Z,-2.64
2023-04-05T04:32:59.194Z,-2.58
2023-04-05T04:35:47.341Z,-2.63
2023-04-05T04:38:35.234Z,-2.56
2023-04-05T04:41:27.146Z,-2.52
2023-04-05T04:44:24.556Z,-2.61
2023-04-05T04:47:23.082Z,-2.52
2023-04-05T04:50:16.306Z,-2.50
2023-04-05T04:52:44.214Z,-2.48
2023-04-05T04:55:16.013Z,-2.40
2023-04-05T04:57:52.402Z,-2.43
2023-04-05T05:00:22.517Z,-2.31
2023-04-05T05:02:52.690Z,-2.21
2023-04-05T05:05:24.016Z,-2.17
2023-04-05T05:07:52.973Z,-2.13
2023-04-05T05:10:21.634Z,-2.05
2023-04-05T05:12:49.838Z,-1.97
2023-04-05T05:16:34.021Z,-2.07
2023-04-05T05:19:03.298Z,-1.91
2023-04-05T05:21:40.759Z,-1.97
2023-04-05T05:24:10.385Z,-1.88
2023-04-05T05:26:42.090Z,-1.66
2023-04-05T05:29:10.021Z,-1.59
2023-04-05T05:31:41.735Z,-1.60
2023-04-05T05:34:09.926Z,-1.47
2023-04-05T05:36:41.167Z,-1.34
2023-04-05T05:39:10.586Z,-1.28
2023-04-05T05:41:41.296Z,-1.28
2023-04-05T05:44:09.313Z,-1.26
2023-04-05T05:46:38.189Z,-1.26
2023-04-05T05:49:06.747Z,-1.25
2023-04-05T05:51:36.202Z,-1.14
2023-04-05T05:54:05.667Z,-0.99
2023-04-05T05:56:33.760Z,-0.92
2023-04-05T05:59:02.001Z,-0.85
2023-04-05T06:01:30.300Z,-1.14
2023-04-05T06:03:58.321Z,-0.84
2023-04-05T06:06:27.080Z,-0.95
2023-04-05T06:08:55.367Z,-0.73
2023-04-05T06:11:25.451Z,-0.99
2023-04-05T06:13:55.284Z,-1.47
2023-04-05T06:16:23.835Z,-1.57
2023-04-05T06:18:51.961Z,-1.33
2023-04-05T06:21:20.081Z,-0.91
2023-04-05T06:23:48.603Z,-0.59
2023-04-05T06:26:27.082Z,-0.47
2023-04-05T06:28:55.920Z,-0.62
2023-04-05T06:31:36.837Z,-0.75
2023-04-05T06:34:06.141Z,-0.48
2023-04-05T06:36:34.680Z,-0.48
2023-04-05T06:39:03.238Z,-0.29
2023-04-05T06:41:31.943Z,-0.02
2023-04-05T06:44:00.344Z,0.03
2023-04-05T06:46:29.130Z,-0.05
2023-04-05T06:48:58.769Z,0.00
2023-04-05T06:51:29.001Z,-0.31
2023-04-05T06:53:57.283Z,-0.12
2023-04-05T06:56:25.879Z,-0.47
2023-04-05T06:58:54.350Z,-0.64
2023-04-05T07:01:22.377Z,-0.18
2023-04-05T07:03:51.087Z,0.03
2023-04-05T07:06:19.126Z,0.29
2023-04-05T07:08:47.353Z,0.28
2023-04-05T07:11:15.883Z,0.29
2023-04-05T07:13:43.874Z,0.54
2023-04-05T07:16:11.972Z,0.53
2023-04-05T07:18:40.499Z,0.25
2023-04-05T07:21:08.588Z,-0.40
2023-04-05T07:23:36.841Z,0.06
2023-04-05T07:26:06.168Z,0.30
2023-04-05T07:28:36.079Z,0.52
2023-04-05T07:31:07.511Z,0.49
2023-04-05T07:33:35.686Z,0.62
2023-04-05T07:36:04.041Z,0.85
2023-04-05T07:38:32.463Z,0.19
2023-04-05T07:41:00.882Z,0.26
2023-04-05T07:43:29.177Z,0.25
2023-04-05T07:46:04.784Z,0.48
2023-04-05T07:48:33.113Z,0.64
2023-04-05T07:51:10.357Z,0.81
2023-04-05T07:53:38.873Z,1.00
2023-04-05T07:56:08.785Z,1.05
2023-04-05T07:58:41.687Z,1.24
2023-04-05T08:01:11.604Z,0.98
2023-04-05T08:03:40.339Z,1.06
2023-04-05T08:06:19.680Z,1.15
2023-04-05T08:08:48.363Z,1.02
2023-04-05T08:11:16.698Z,0.34
2023-04-05T08:13:45.321Z,0.54
2023-04-05T08:16:13.661Z,0.65
2023-04-05T08:18:42.165Z,0.96
2023-04-05T08:21:10.890Z,1.31
2023-04-05T08:23:39.410Z,1.72
2023-04-05T08:26:08.061Z,1.76
2023-04-05T08:28:37.510Z,2.16
2023-04-05T08:31:06.274Z,2.46
2023-04-05T08:33:34.548Z,2.79
2023-04-05T08:36:10.207Z,2.33
2023-04-05T08:38:38.885Z,2.35
2023-04-05T08:41:20.033Z,2.45
2023-04-05T08:44:02.782Z,3.25
2023-04-05T08:46:35.361Z,3.73
2023-04-05T08:49:08.370Z,4.17
2023-04-05T08:51:39.967Z,2.81
2023-04-05T08:54:08.402Z,2.86
2023-04-05T08:56:37.389Z,2.39
2023-04-05T08:59:06.936Z,2.93
2023-04-05T09:01:44.272Z,3.05
2023-04-05T09:04:27.561Z,3.26
2023-04-05T09:06:59.495Z,4.26
2023-04-05T09:09:33.376Z,4.59
2023-04-05T09:12:03.773Z,3.50
2023-04-05T09:14:34.801Z,2.60
2023-04-05T09:17:04.831Z,2.57
2023-04-05T09:19:32.870Z,3.05
2023-04-05T09:22:08.589Z,2.48
2023-04-05T09:24:44.272Z,2.88
2023-04-05T09:27:19.403Z,2.89
2023-04-05T09:29:54.654Z,4.22
2023-04-05T09:32:29.773Z,4.66
2023-04-05T09:35:02.486Z,4.53
2023-04-05T09:37:33.135Z,4.05
2023-04-05T09:40:07.654Z,5.24
2023-04-05T09:42:47.672Z,4.20
2023-04-05T09:45:18.456Z,4.40
2023-04-05T09:47:58.448Z,5.74
2023-04-05T09:50:26.929Z,6.33
2023-04-05T09:53:29.816Z,6.17
2023-04-05T09:56:11.197Z,6.65
2023-04-05T09:58:42.877Z,6.02
2023-04-05T10:01:16.829Z,5.92
2023-04-05T10:03:50.310Z,6.54
2023-04-05T10:06:18.740Z,5.35
2023-04-05T10:08:48.846Z,4.97
2023-04-05T10:11:21.240Z,5.19
2023-04-05T10:13:50.932Z,5.82
2023-04-05T10:16:26.199Z,5.97
2023-04-05T10:18:54.723Z,6.35
2023-04-05T10:21:28.878Z,7.03
2023-04-05T10:24:44.117Z,6.91
2023-04-05T10:27:28.456Z,6.80
2023-04-05T10:30:09.332Z,6.35
2023-04-05T10:33:14.496Z,5.48
2023-04-05T10:36:12.735Z,5.47
2023-04-05T10:39:20.374Z,6.21
2023-04-05T10:41:53.268Z,6.60
2023-04-05T10:44:26.182Z,6.22
2023-04-05T10:46:56.495Z,6.39
2023-04-05T10:49:40.508Z,5.56
2023-04-05T10:52:09.539Z,6.42
2023-04-05T10:54:40.619Z,6.90
2023-04-05T10:57:10.903Z,7.46
2023-04-05T10:59:45.903Z,7.99
2023-04-05T11:02:15.796Z,8.48
2023-04-05T11:04:44.356Z,8.76
2023-04-05T11:07:20.127Z,8.50
2023-04-05T11:09:55.465Z,8.06
2023-04-05T11:12:56.355Z,6.42
2023-04-05T11:15:32.825Z,6.89
2023-04-05T11:18:32.969Z,7.38
2023-04-05T11:21:08.141Z,8.38
2023-04-05T11:24:07.809Z,8.99
2023-04-05T11:26:44.868Z,9.28
2023-04-05T11:29:12.898Z,9.26
2023-04-05T11:32:06.330Z,8.44
2023-04-05T11:34:37.924Z,6.30
2023-04-05T11:37:05.948Z,7.00
2023-04-05T11:39:34.309Z,6.87
2023-04-05T11:42:10.381Z,6.99
2023-04-05T11:44:53.307Z,7.29
2023-04-05T11:47:22.151Z,7.67
2023-04-05T11:49:51.491Z,7.59
2023-04-05T11:52:23.050Z,7.68
2023-04-05T11:54:52.353Z,8.09
2023-04-05T11:57:23.351Z,8.09
2023-04-05T11:59:54.077Z,9.07
2023-04-05T12:02:22.730Z,7.42
2023-04-05T12:04:58.596Z,8.58
2023-04-05T12:07:29.763Z,8.64
2023-04-05T12:10:16.256Z,7.74
2023-04-05T12:12:45.567Z,7.56
2023-04-05T12:15:18.285Z,7.42
2023-04-05T12:17:54.770Z,7.77
2023-04-05T12:20:25.889Z,7.51
2023-04-05T12:22:56.907Z,7.58
2023-04-05T12:25:26.494Z,8.32
2023-04-05T12:27:55.205Z,9.40
2023-04-05T12:30:25.225Z,9.49
2023-04-05T12:32:57.987Z,8.81
2023-04-05T12:35:34.935Z,8.40
2023-04-05T12:38:06.819Z,8.07
2023-04-05T12:40:36.693Z,7.82
2023-04-05T12:43:09.676Z,7.84
2023-04-05T12:45:42.546Z,7.67
2023-04-05T12:48:14.448Z,7.64
2023-04-05T12:50:45.622Z,7.01
2023-04-05T12:53:20.711Z,7.18
2023-04-05T12:55:56.025Z,7.41
2023-04-05T12:58:35.321Z,5.69
2023-04-05T13:01:07.331Z,5.62
2023-04-05T13:03:36.890Z,5.80
2023-04-05T13:06:05.850Z,6.60
2023-04-05T13:08:34.327Z,6.54
2023-04-05T13:11:04.517Z,6.95
2023-04-05T13:13:34.726Z,6.34
2023-04-05T13:16:03.612Z,5.50
2023-04-05T13:18:32.240Z,4.99
2023-04-05T13:21:00.979Z,4.58
2023-04-05T13:23:29.472Z,4.41
2023-04-05T13:25:58.567Z,4.79
2023-04-05T13:28:27.562Z,4.57
2023-04-05T13:30:56.273Z,4.27
2023-04-05T13:33:25.324Z,4.48
2023-04-05T13:35:53.584Z,4.51
2023-04-05T13:38:22.162Z,4.42
2023-04-05T13:40:50.589Z,4.10
2023-04-05T13:43:19.459Z,4.37
2023-04-05T13:45:47.858Z,4.55
2023-04-05T13:48:17.404Z,4.76
2023-04-05T13:50:47.450Z,5.10
2023-04-05T13:53:17.040Z,5.31
2023-04-05T13:55:45.616Z,5.07
2023-04-05T13:58:14.729Z,5.05
2023-04-05T14:00:43.333Z,4.98
2023-04-05T14:03:12.609Z,5.12
2023-04-05T14:05:41.401Z,5.19
2023-04-05T14:08:10.272Z,5.09
2023-04-05T14:10:39.568Z,4.89
2023-04-05T14:13:08.143Z,4.39
2023-04-05T14:15:37.086Z,4.62
2023-04-05T14:18:07.421Z,4.16
2023-04-05T14:20:36.394Z,3.83
2023-04-05T14:23:05.190Z,3.88
2023-04-05T14:25:34.075Z,3.94
2023-04-05T14:28:02.556Z,3.84
2023-04-05T14:30:31.549Z,3.88
2023-04-05T14:32:59.966Z,4.22
2023-04-05T14:35:28.645Z,4.19
2023-04-05T14:37:58.324Z,3.83
2023-04-05T14:40:27.080Z,3.72
2023-04-05T14:42:56.300Z,4.05
2023-04-05T14:45:28.087Z,4.16
2023-04-05T14:47:56.787Z,4.28
2023-04-05T14:50:25.557Z,4.14
2023-04-05T14:52:55.000Z,4.23
2023-04-05T14:55:23.634Z,4.26
2023-04-05T14:57:51.942Z,4.32
2023-04-05T15:00:21.832Z,3.93
2023-04-05T15:02:50.668Z,3.86
2023-04-05T15:05:19.567Z,3.47
2023-04-05T15:07:48.357Z,3.30
2023-04-05T15:10:18.817Z,3.65
2023-04-05T15:12:47.081Z,3.66
2023-04-05T15:15:19.120Z,3.75
2023-04-05T15:17:47.616Z,3.47
2023-04-05T15:20:16.468Z,3.52
2023-04-05T15:22:45.200Z,3.49
2023-04-05T15:25:14.617Z,3.39
2023-04-05T15:27:43.167Z,3.46
2023-04-05T15:30:14.338Z,3.65
2023-04-05T15:32:42.964Z,3.33
2023-04-05T15:35:11.794Z,3.23
2023-04-05T15:37:41.114Z,3.45
2023-04-05T15:41:33.681Z,3.42
2023-04-05T15:44:04.117Z,3.37
2023-04-05T15:46:32.867Z,3.36
2023-04-05T15:49:01.597Z,3.34
2023-04-05T15:51:30.670Z,3.42
2023-04-05T15:53:59.048Z,3.38
2023-04-05T15:56:27.945Z,3.39
2023-04-05T15:58:57.608Z,3.32
2023-04-05T16:01:26.024Z,3.33
2023-04-05T16:03:54.252Z,3.09
2023-04-05T16:06:28.479Z,3.16
2023-04-05T16:08:56.822Z,3.14
2023-04-05T16:11:25.708Z,3.10
2023-04-05T16:13:57.241Z,2.95
2023-04-05T16:16:35.278Z,2.86
2023-04-05T16:19:13.965Z,2.84
2023-04-05T16:21:42.335Z,2.89
2023-04-05T16:24:11.487Z,2.95
2023-04-05T16:26:39.701Z,2.84
2023-04-05T16:29:08.095Z,2.94
2023-04-05T16:31:37.089Z,2.95
2023-04-05T16:34:05.490Z,2.80
2023-04-05T16:36:33.847Z,2.82
2023-04-05T16:39:02.448Z,2.76
2023-04-05T16:41:30.998Z,2.69
2023-04-05T16:43:59.008Z,2.62
2023-04-05T16:46:30.842Z,2.54
2023-04-05T16:49:00.967Z,2.50
2023-04-05T16:51:29.458Z,2.48
2023-04-05T16:53:57.688Z,2.46
2023-04-05T16:56:26.165Z,2.39
2023-04-05T16:58:55.221Z,2.38
2023-04-05T17:01:24.582Z,2.31
2023-04-05T17:03:53.141Z,2.34
2023-04-05T17:06:21.703Z,2.31
2023-04-05T17:08:50.023Z,2.14
2023-04-05T17:11:18.913Z,2.18
2023-04-05T17:13:47.669Z,2.18
2023-04-05T17:16:16.927Z,2.16
2023-04-05T17:18:45.628Z,2.17
2023-04-05T17:21:14.109Z,2.20
2023-04-05T17:23:42.841Z,2.19
2023-04-05T17:26:11.638Z,2.09
2023-04-05T17:28:39.981Z,2.09
2023-04-05T17:31:08.325Z,2.07
2023-04-05T17:33:37.632Z,2.04
2023-04-05T17:36:06.628Z,1.99
2023-04-05T17:38:35.379Z,1.92
2023-04-05T17:41:04.252Z,1.90
2023-04-05T17:43:32.695Z,1.84
2023-04-05T17:46:01.309Z,1.82
2023-04-05T17:48:30.720Z,1.77
2023-04-05T17:51:05.354Z,1.78
2023-04-05T17:53:34.708Z,1.71
2023-04-05T17:56:03.838Z,1.74
2023-04-05T17:58:32.778Z,1.76
2023-04-05T18:01:02.008Z,1.76
2023-04-05T18:03:30.923Z,1.66
2023-04-05T18:06:00.305Z,1.64
2023-04-05T18:08:29.492Z,1.61
2023-04-05T18:10:59.327Z,1.58
2023-04-05T18:13:28.731Z,1.48
2023-04-05T18:16:00.766Z,1.41
2023-04-05T18:18:29.186Z,1.39
2023-04-05T18:21:03.392Z,1.28
2023-04-05T18:23:31.824Z,1.15
2023-04-05T18:26:10.525Z,1.00
2023-04-05T18:28:39.305Z,0.96
2023-04-05T18:31:12.038Z,0.92
2023-04-05T18:33:41.096Z,0.79
2023-04-05T18:36:09.728Z,0.73
2023-04-05T18:38:41.639Z,0.66
2023-04-05T18:41:11.833Z,0.62
2023-04-05T18:43:40.786Z,0.57
2023-04-05T18:46:09.204Z,0.60
2023-04-05T18:48:39.666Z,0.60
2023-04-05T18:51:08.548Z,0.64
2023-04-05T18:53:37.917Z,0.62
2023-04-05T18:56:06.663Z,0.60
2023-04-05T18:58:38.127Z,0.60
2023-04-05T19:01:09.970Z,0.54
2023-04-05T19:03:39.669Z,0.50
2023-04-05T19:06:07.979Z,0.51
2023-04-05T19:08:37.111Z,0.48
2023-04-05T19:11:07.519Z,0.47
2023-04-05T19:13:36.711Z,0.44
2023-04-05T19:16:05.882Z,0.48
2023-04-05T19:18:34.579Z,0.44
2023-04-05T19:21:03.174Z,0.41
2023-04-05T19:23:31.867Z,0.45
2023-04-05T19:26:00.804Z,0.43
2023-04-05T19:28:32.304Z,0.44
2023-04-05T19:31:01.038Z,0.45
2023-04-05T19:33:31.915Z,0.46
2023-04-05T19:36:01.453Z,0.52
2023-04-05T19:38:30.070Z,0.50
2023-04-05T19:40:58.885Z,0.49
2023-04-05T19:43:31.861Z,0.54
2023-04-05T19:46:00.971Z,0.54
2023-04-05T19:48:46.172Z,0.48
2023-04-05T19:51:18.221Z,0.44
2023-04-05T19:53:51.945Z,0.40
2023-04-05T19:56:31.192Z,0.36
2023-04-05T19:59:25.076Z,0.32
2023-04-05T20:02:10.952Z,0.32
2023-04-05T20:04:40.079Z,0.39
2023-04-05T20:07:09.066Z,0.40
2023-04-05T20:09:40.529Z,0.39
2023-04-05T20:12:09.699Z,0.37
2023-04-05T20:14:46.768Z,0.38
2023-04-05T20:17:18.629Z,0.37
2023-04-05T20:20:00.944Z,0.35
2023-04-05T20:22:32.655Z,0.38
2023-04-05T20:25:32.461Z,0.38
2023-04-05T20:28:01.158Z,0.34
2023-04-05T20:30:31.866Z,0.28
2023-04-05T20:33:02.741Z,0.23
2023-04-05T20:35:35.302Z,0.18
2023-04-05T20:38:04.446Z,0.12
2023-04-05T20:40:33.949Z,0.05
2023-04-05T20:43:03.898Z,0.01
2023-04-05T20:45:32.763Z,-0.04
2023-04-05T20:48:02.587Z,-0.06
2023-04-05T20:50:31.312Z,-0.05
2023-04-05T20:53:00.062Z,-0.05
2023-04-05T20:55:28.842Z,-0.10
2023-04-05T20:57:57.739Z,-0.06
2023-04-05T21:00:26.439Z,-0.03
2023-04-05T21:02:56.798Z,-0.04
2023-04-05T21:05:25.397Z,-0.02
2023-04-05T21:07:54.969Z,-0.04
2023-04-05T21:10:23.203Z,-0.03
2023-04-05T21:12:53.304Z,-0.01
2023-04-05T21:15:22.816Z,-0.06
2023-04-05T21:17:51.342Z,-0.04
2023-04-05T21:20:19.556Z,-0.03
2023-04-05T21:22:47.910Z,0.03
2023-04-05T21:25:16.007Z,-0.05
2023-04-05T21:27:44.221Z,-0.02
2023-04-05T21:30:13.754Z,-0.08
2023-04-05T21:32:41.844Z,-0.05
2023-04-05T21:35:11.632Z,0.00
2023-04-05T21:37:42.671Z,0.03
2023-04-05T21:40:11.747Z,0.03
2023-04-05T21:42:40.237Z,-0.02
2023-04-05T21:45:10.100Z,0.11
2023-04-05T21:47:38.970Z,0.09
2023-04-05T21:50:08.838Z,0.18
2023-04-05T21:52:37.544Z,0.16
2023-04-05T21:55:06.583Z,0.16
2023-04-05T21:57:35.201Z,0.21
2023-04-05T22:00:07.427Z,0.18
2023-04-05T22:02:41.527Z,0.17
2023-04-05T22:05:11.151Z,0.21
2023-04-05T22:07:39.532Z,0.20
2023-04-05T22:10:09.197Z,0.16
2023-04-05T22:12:38.210Z,0.22
2023-04-05T22:15:08.358Z,0.18
2023-04-05T22:17:36.928Z,0.20
2023-04-05T22:20:06.294Z,0.20
2023-04-05T22:22:35.146Z,0.17
2023-04-05T22:25:03.971Z,0.18
2023-04-05T22:27:32.306Z,0.14
2023-04-05T22:30:01.669Z,0.12
2023-04-05T22:32:29.923Z,0.11
2023-04-05T22:34:58.470Z,0.08
2023-04-05T22:37:26.789Z,0.02
2023-04-05T22:39:55.030Z,0.08
2023-04-05T22:42:24.169Z,0.02
2023-04-05T22:44:52.248Z,-0.01
2023-04-05T22:47:21.435Z,0.03
2023-04-05T22:49:50.113Z,0.02
2023-04-05T22:52:18.152Z,0.03
2023-04-05T22:54:46.564Z,0.05
2023-04-05T22:57:14.872Z,-0.01
2023-04-05T22:59:44.134Z,0.01
2023-04-05T23:02:12.647Z,0.03
2023-04-05T23:04:41.404Z,0.03
2023-04-05T23:07:09.536Z,-0.01
2023-04-05T23:09:38.496Z,-0.01
2023-04-05T23:12:07.175Z,-0.05
2023-04-05T23:14:35.338Z,-0.06
2023-04-05T23:17:05.058Z,-0.05
2023-04-05T23:19:33.784Z,-0.08
2023-04-05T23:22:02.041Z,-0.03
2023-04-05T23:24:30.539Z,-0.02
2023-04-05T23:26:58.658Z,-0.03
2023-04-05T23:29:26.823Z,0.03
2023-04-05T23:31:55.084Z,0.06
2023-04-05T23:34:23.234Z,0.01
2023-04-05T23:36:51.368Z,0.05
2023-04-05T23:39:20.111Z,0.04
2023-04-05T23:41:48.403Z,0.05
2023-04-05T23:44:16.535Z,0.06
2023-04-05T23:46:44.885Z,0.07
2023-04-05T23:49:13.842Z,0.08
2023-04-05T23:51:42.022Z,0.06
2023-04-05T23:54:10.602Z,0.10
2023-04-05T23:56:39.203Z,0.11
2023-04-05T23:59:07.867Z,0.11
